sensor_id;sensor_type;location;lat;lon;timestamp;temperature;humidity
68177;DHT22;56478;50.982;7.032;2023-04-01T00:00:22;11.62;76.31
68177;DHT22;56478;50.982;7.032;2023-04-01T00:02:47;11.69;75.38
68177;DHT22;56478;50.982;7.032;2023-04-01T00:05:13;11.69;74.94
68177;DHT22;56478;50.982;7.032;2023-04-01T00:07:39;11.71;74.25
68177;DHT22;56478;50.982;7.032;2023-04-01T00:10:10;11.66;75.63
68177;DHT22;56478;50.982;7.032;2023-04-01T00:12:37;11.60;75.08
68177;DHT22;56478;50.982;7.032;2023-04-01T00:15:06;11.71;74.98
68177;DHT22;56478;50.982;7.032;2023-04-01T00:17:32;11.69;74.57
68177;DHT22;56478;50.982;7.032;2023-04-01T00:19:58;11.66;75.97
68177;DHT22;56478;50.982;7.032;2023-04-01T00:22:24;11.67;74.55
68177;DHT22;56478;50.982;7.032;2023-04-01T00:24:50;11.64;75.06
68177;DHT22;56478;50.982;7.032;2023-04-01T00:27:15;11.64;74.52
68177;DHT22;56478;50.982;7.032;2023-04-01T00:29:42;11.69;74.38
68177;DHT22;56478;50.982;7.032;2023-04-01T00:32:08;11.71;74.69
68177;DHT22;56478;50.982;7.032;2023-04-01T00:34:33;11.69;74.60
68177;DHT22;56478;50.982;7.032;2023-04-01T00:36:58;11.64;74.61
68177;DHT22;56478;50.982;7.032;2023-04-01T00:39:24;11.60;74.75
68177;DHT22;56478;50.982;7.032;2023-04-01T00:41:49;11.59;75.20
68177;DHT22;56478;50.982;7.032;2023-04-01T00:44:23;11.60;74.79
68177;DHT22;56478;50.982;7.032;2023-04-01T00:46:49;11.64;74.69
68177;DHT22;56478;50.982;7.032;2023-04-01T00:49:16;11.64;75.24
68177;DHT22;56478;50.982;7.032;2023-04-01T00:51:45;11.62;75.41
68177;DHT22;56478;50.982;7.032;2023-04-01T00:54:11;11.60;75.41
68177;DHT22;56478;50.982;7.032;2023-04-01T00:57:15;11.66;74.54
68177;DHT22;56478;50.982;7.032;2023-04-01T00:59:44;11.67;74.90
68177;DHT22;56478;50.982;7.032;2023-04-01T01:02:13;11.60;74.82
68177;DHT22;56478;50.982;7.032;2023-04-01T01:04:40;11.63;74.70
68177;DHT22;56478;50.982;7.032;2023-04-01T01:12:46;11.59;74.81
68177;DHT22;56478;50.982;7.032;2023-04-01T01:15:26;11.56;75.30
68177;DHT22;56478;50.982;7.032;2023-04-01T01:18:09;11.53;74.99
68177;DHT22;56478;50.982;7.032;2023-04-01T01:30:56;11.62;74.49
68177;DHT22;56478;50.982;7.032;2023-04-01T01:33:35;11.56;75.34
68177;DHT22;56478;50.982;7.032;2023-04-01T01:36:04;11.59;75.75
68177;DHT22;56478;50.982;7.032;2023-04-01T01:38:33;11.59;75.63
68177;DHT22;56478;50.982;7.032;2023-04-01T01:41:01;11.52;75.87
68177;DHT22;56478;50.982;7.032;2023-04-01T01:43:35;11.49;75.81
68177;DHT22;56478;50.982;7.032;2023-04-01T01:46:05;11.47;76.29
68177;DHT22;56478;50.982;7.032;2023-04-01T01:48:34;11.42;77.59
68177;DHT22;56478;50.982;7.032;2023-04-01T01:51:00;11.37;78.07
68177;DHT22;56478;50.982;7.032;2023-04-01T01:53:26;11.42;78.43
68177;DHT22;56478;50.982;7.032;2023-04-01T01:55:51;11.43;78.82
68177;DHT22;56478;50.982;7.032;2023-04-01T01:58:38;11.42;79.34
68177;DHT22;56478;50.982;7.032;2023-04-01T02:01:09;11.47;78.43
68177;DHT22;56478;50.982;7.032;2023-04-01T02:03:37;11.33;79.65
68177;DHT22;56478;50.982;7.032;2023-04-01T02:06:07;11.32;78.44
68177;DHT22;56478;50.982;7.032;2023-04-01T02:08:39;11.30;78.87
68177;DHT22;56478;50.982;7.032;2023-04-01T02:11:08;11.32;78.28
68177;DHT22;56478;50.982;7.032;2023-04-01T02:13:52;11.19;80.02
68177;DHT22;56478;50.982;7.032;2023-04-01T02:16:26;11.22;79.62
68177;DHT22;56478;50.982;7.032;2023-04-01T02:18:55;11.15;79.73
68177;DHT22;56478;50.982;7.032;2023-04-01T02:21:24;11.09;80.14
68177;DHT22;56478;50.982;7.032;2023-04-01T02:23:53;11.07;80.72
68177;DHT22;56478;50.982;7.032;2023-04-01T02:26:19;11.08;80.74
68177;DHT22;56478;50.982;7.032;2023-04-01T02:28:46;10.98;82.17
68177;DHT22;56478;50.982;7.032;2023-04-01T02:31:13;10.90;82.92
68177;DHT22;56478;50.982;7.032;2023-04-01T02:33:40;10.92;81.98
68177;DHT22;56478;50.982;7.032;2023-04-01T02:36:11;10.95;82.42
68177;DHT22;56478;50.982;7.032;2023-04-01T02:38:37;10.85;83.30
68177;DHT22;56478;50.982;7.032;2023-04-01T02:41:02;10.90;83.60
68177;DHT22;56478;50.982;7.032;2023-04-01T02:43:28;10.77;83.81
68177;DHT22;56478;50.982;7.032;2023-04-01T02:45:54;10.80;84.85
68177;DHT22;56478;50.982;7.032;2023-04-01T02:48:19;10.84;83.39
68177;DHT22;56478;50.982;7.032;2023-04-01T02:50:45;10.77;83.41
68177;DHT22;56478;50.982;7.032;2023-04-01T02:53:10;10.73;84.21
68177;DHT22;56478;50.982;7.032;2023-04-01T02:55:37;10.71;84.71
68177;DHT22;56478;50.982;7.032;2023-04-01T02:58:02;10.67;84.65
68177;DHT22;56478;50.982;7.032;2023-04-01T03:00:28;10.73;84.80
68177;DHT22;56478;50.982;7.032;2023-04-01T03:02:54;10.66;84.58
68177;DHT22;56478;50.982;7.032;2023-04-01T03:05:20;10.67;84.62
68177;DHT22;56478;50.982;7.032;2023-04-01T03:07:46;10.61;84.65
68177;DHT22;56478;50.982;7.032;2023-04-01T03:10:11;10.66;85.26
68177;DHT22;56478;50.982;7.032;2023-04-01T03:12:37;10.63;84.38
68177;DHT22;56478;50.982;7.032;2023-04-01T03:15:03;10.64;84.74
68177;DHT22;56478;50.982;7.032;2023-04-01T03:17:31;10.70;84.49
68177;DHT22;56478;50.982;7.032;2023-04-01T03:19:57;10.68;83.78
68177;DHT22;56478;50.982;7.032;2023-04-01T03:22:22;10.67;84.68
68177;DHT22;56478;50.982;7.032;2023-04-01T03:24:48;10.77;83.67
68177;DHT22;56478;50.982;7.032;2023-04-01T03:27:14;10.70;84.01
68177;DHT22;56478;50.982;7.032;2023-04-01T03:29:40;10.71;85.09
68177;DHT22;56478;50.982;7.032;2023-04-01T03:32:05;10.67;84.73
68177;DHT22;56478;50.982;7.032;2023-04-01T03:34:31;10.67;84.58
68177;DHT22;56478;50.982;7.032;2023-04-01T03:36:57;10.73;85.07
68177;DHT22;56478;50.982;7.032;2023-04-01T03:39:22;10.66;85.01
68177;DHT22;56478;50.982;7.032;2023-04-01T03:41:48;10.64;85.33
68177;DHT22;56478;50.982;7.032;2023-04-01T03:44:13;10.56;85.00
68177;DHT22;56478;50.982;7.032;2023-04-01T03:46:39;10.59;85.22
68177;DHT22;56478;50.982;7.032;2023-04-01T03:49:09;10.60;85.27
68177;DHT22;56478;50.982;7.032;2023-04-01T03:51:38;10.68;85.33
68177;DHT22;56478;50.982;7.032;2023-04-01T03:54:04;10.64;84.72
68177;DHT22;56478;50.982;7.032;2023-04-01T03:56:30;10.64;84.86
68177;DHT22;56478;50.982;7.032;2023-04-01T03:58:55;10.70;83.93
68177;DHT22;56478;50.982;7.032;2023-04-01T04:01:21;10.73;84.57
68177;DHT22;56478;50.982;7.032;2023-04-01T04:03:49;10.74;86.12
68177;DHT22;56478;50.982;7.032;2023-04-01T04:06:15;10.81;85.49
68177;DHT22;56478;50.982;7.032;2023-04-01T04:08:40;10.78;85.02
68177;DHT22;56478;50.982;7.032;2023-04-01T04:11:06;10.74;86.10
68177;DHT22;56478;50.982;7.032;2023-04-01T04:13:32;10.84;84.21
68177;DHT22;56478;50.982;7.032;2023-04-01T04:15:58;10.81;85.83
68177;DHT22;56478;50.982;7.032;2023-04-01T04:18:23;10.80;85.83
68177;DHT22;56478;50.982;7.032;2023-04-01T04:20:49;10.78;85.77
68177;DHT22;56478;50.982;7.032;2023-04-01T04:23:16;10.83;85.11
68177;DHT22;56478;50.982;7.032;2023-04-01T04:26:05;10.74;84.21
68177;DHT22;56478;50.982;7.032;2023-04-01T04:28:31;10.70;84.18
68177;DHT22;56478;50.982;7.032;2023-04-01T04:30:56;10.77;83.20
68177;DHT22;56478;50.982;7.032;2023-04-01T04:33:23;10.80;82.70
68177;DHT22;56478;50.982;7.032;2023-04-01T04:35:49;10.87;82.85
68177;DHT22;56478;50.982;7.032;2023-04-01T04:38:15;10.78;83.30
68177;DHT22;56478;50.982;7.032;2023-04-01T04:40:41;10.80;83.10
68177;DHT22;56478;50.982;7.032;2023-04-01T04:43:07;10.80;83.73
68177;DHT22;56478;50.982;7.032;2023-04-01T04:45:35;10.81;83.03
68177;DHT22;56478;50.982;7.032;2023-04-01T04:48:00;10.77;83.72
68177;DHT22;56478;50.982;7.032;2023-04-01T04:50:26;10.78;84.18
68177;DHT22;56478;50.982;7.032;2023-04-01T04:52:51;10.74;83.41
68177;DHT22;56478;50.982;7.032;2023-04-01T04:55:16;10.76;84.09
68177;DHT22;56478;50.982;7.032;2023-04-01T04:57:42;10.74;83.89
68177;DHT22;56478;50.982;7.032;2023-04-01T05:00:08;10.71;84.42
68177;DHT22;56478;50.982;7.032;2023-04-01T05:02:35;10.70;84.10
68177;DHT22;56478;50.982;7.032;2023-04-01T05:05:01;10.68;84.53
68177;DHT22;56478;50.982;7.032;2023-04-01T05:07:27;10.64;84.75
68177;DHT22;56478;50.982;7.032;2023-04-01T05:09:52;10.63;84.86
68177;DHT22;56478;50.982;7.032;2023-04-01T05:12:18;10.66;85.11
68177;DHT22;56478;50.982;7.032;2023-04-01T05:14:43;10.67;85.16
68177;DHT22;56478;50.982;7.032;2023-04-01T05:17:10;10.64;84.94
68177;DHT22;56478;50.982;7.032;2023-04-01T05:19:36;10.71;85.37
68177;DHT22;56478;50.982;7.032;2023-04-01T05:22:01;10.67;85.44
68177;DHT22;56478;50.982;7.032;2023-04-01T05:24:27;10.68;85.65
68177;DHT22;56478;50.982;7.032;2023-04-01T05:26:52;10.61;84.77
68177;DHT22;56478;50.982;7.032;2023-04-01T05:29:18;10.64;84.72
68177;DHT22;56478;50.982;7.032;2023-04-01T05:31:43;10.67;85.20
68177;DHT22;56478;50.982;7.032;2023-04-01T05:34:09;10.67;85.37
68177;DHT22;56478;50.982;7.032;2023-04-01T05:36:34;10.68;85.88
68177;DHT22;56478;50.982;7.032;2023-04-01T05:39:00;10.67;85.45
68177;DHT22;56478;50.982;7.032;2023-04-01T05:41:26;10.76;86.10
68177;DHT22;56478;50.982;7.032;2023-04-01T05:43:51;10.71;85.37
68177;DHT22;56478;50.982;7.032;2023-04-01T05:46:17;10.64;85.56
68177;DHT22;56478;50.982;7.032;2023-04-01T05:48:42;10.63;85.90
68177;DHT22;56478;50.982;7.032;2023-04-01T05:51:15;10.57;86.53
68177;DHT22;56478;50.982;7.032;2023-04-01T05:53:41;10.53;86.75
68177;DHT22;56478;50.982;7.032;2023-04-01T05:56:07;10.53;87.15
68177;DHT22;56478;50.982;7.032;2023-04-01T05:58:35;10.55;87.26
68177;DHT22;56478;50.982;7.032;2023-04-01T06:01:05;10.52;87.53
68177;DHT22;56478;50.982;7.032;2023-04-01T06:03:31;10.50;87.26
68177;DHT22;56478;50.982;7.032;2023-04-01T06:05:57;10.53;87.47
68177;DHT22;56478;50.982;7.032;2023-04-01T06:08:23;10.52;87.23
68177;DHT22;56478;50.982;7.032;2023-04-01T06:11:16;10.56;87.02
68177;DHT22;56478;50.982;7.032;2023-04-01T06:16:38;10.57;87.27
68177;DHT22;56478;50.982;7.032;2023-04-01T06:28:05;10.55;88.05
68177;DHT22;56478;50.982;7.032;2023-04-01T06:42:05;10.78;86.97
68177;DHT22;56478;50.982;7.032;2023-04-01T06:50:35;10.87;86.70
68177;DHT22;56478;50.982;7.032;2023-04-01T06:55:41;10.84;86.38
68177;DHT22;56478;50.982;7.032;2023-04-01T06:58:35;10.88;86.27
68177;DHT22;56478;50.982;7.032;2023-04-01T07:01:21;10.83;86.08
68177;DHT22;56478;50.982;7.032;2023-04-01T07:03:51;10.81;86.14
68177;DHT22;56478;50.982;7.032;2023-04-01T07:06:35;10.83;86.82
68177;DHT22;56478;50.982;7.032;2023-04-01T07:09:06;10.91;85.89
68177;DHT22;56478;50.982;7.032;2023-04-01T07:11:36;10.88;86.10
68177;DHT22;56478;50.982;7.032;2023-04-01T07:16:47;10.92;85.99
68177;DHT22;56478;50.982;7.032;2023-04-01T07:19:36;10.91;86.44
68177;DHT22;56478;50.982;7.032;2023-04-01T07:22:27;10.88;86.71
68177;DHT22;56478;50.982;7.032;2023-04-01T07:24:54;10.84;87.44
68177;DHT22;56478;50.982;7.032;2023-04-01T07:27:23;10.78;87.38
68177;DHT22;56478;50.982;7.032;2023-04-01T07:29:49;10.83;87.18
68177;DHT22;56478;50.982;7.032;2023-04-01T07:33:12;10.77;87.69
68177;DHT22;56478;50.982;7.032;2023-04-01T07:35:42;10.76;88.16
68177;DHT22;56478;50.982;7.032;2023-04-01T07:38:34;10.78;88.16
68177;DHT22;56478;50.982;7.032;2023-04-01T07:51:59;10.97;87.17
68177;DHT22;56478;50.982;7.032;2023-04-01T08:00:02;10.85;87.36
68177;DHT22;56478;50.982;7.032;2023-04-01T08:02:52;10.84;88.02
68177;DHT22;56478;50.982;7.032;2023-04-01T08:06:09;10.98;87.34
68177;DHT22;56478;50.982;7.032;2023-04-01T08:13:34;11.04;87.43
68177;DHT22;56478;50.982;7.032;2023-04-01T08:19:00;11.01;87.51
68177;DHT22;56478;50.982;7.032;2023-04-01T08:21:43;10.95;87.24
68177;DHT22;56478;50.982;7.032;2023-04-01T08:24:31;10.98;87.75
68177;DHT22;56478;50.982;7.032;2023-04-01T08:27:00;10.97;87.35
68177;DHT22;56478;50.982;7.032;2023-04-01T08:29:51;10.95;87.94
68177;DHT22;56478;50.982;7.032;2023-04-01T08:32:28;10.98;88.05
68177;DHT22;56478;50.982;7.032;2023-04-01T08:35:26;10.94;87.82
68177;DHT22;56478;50.982;7.032;2023-04-01T08:37:55;11.05;88.05
68177;DHT22;56478;50.982;7.032;2023-04-01T08:52:18;11.14;87.97
68177;DHT22;56478;50.982;7.032;2023-04-01T09:00:44;11.22;87.02
68177;DHT22;56478;50.982;7.032;2023-04-01T09:03:58;11.22;86.96
68177;DHT22;56478;50.982;7.032;2023-04-01T09:06:47;11.23;87.33
68177;DHT22;56478;50.982;7.032;2023-04-01T09:15:30;11.22;87.55
68177;DHT22;56478;50.982;7.032;2023-04-01T09:18:20;11.15;87.51
68177;DHT22;56478;50.982;7.032;2023-04-01T09:27:04;11.12;87.60
68177;DHT22;56478;50.982;7.032;2023-04-01T09:38:28;11.28;87.17
68177;DHT22;56478;50.982;7.032;2023-04-01T09:57:52;11.20;87.43
68177;DHT22;56478;50.982;7.032;2023-04-01T10:09:47;11.30;87.15
68177;DHT22;56478;50.982;7.032;2023-04-01T10:12:45;11.46;87.25
68177;DHT22;56478;50.982;7.032;2023-04-01T10:21:05;11.47;86.58
68177;DHT22;56478;50.982;7.032;2023-04-01T10:32:07;11.47;86.42
68177;DHT22;56478;50.982;7.032;2023-04-01T10:49:17;11.54;86.01
68177;DHT22;56478;50.982;7.032;2023-04-01T11:02:57;11.49;85.13
68177;DHT22;56478;50.982;7.032;2023-04-01T11:19:56;11.60;84.28
68177;DHT22;56478;50.982;7.032;2023-04-01T11:32:57;11.97;84.26
68177;DHT22;56478;50.982;7.032;2023-04-01T11:44:38;11.98;83.64
68177;DHT22;56478;50.982;7.032;2023-04-01T11:52:21;12.30;83.68
68177;DHT22;56478;50.982;7.032;2023-04-01T12:13:08;12.71;81.50
68177;DHT22;56478;50.982;7.032;2023-04-01T12:17:46;12.84;81.45
68177;DHT22;56478;50.982;7.032;2023-04-01T12:20:27;12.81;81.69
68177;DHT22;56478;50.982;7.032;2023-04-01T12:46:00;12.43;81.43
68177;DHT22;56478;50.982;7.032;2023-04-01T12:51:27;12.43;82.20
68177;DHT22;56478;50.982;7.032;2023-04-01T12:54:09;12.56;82.07
68177;DHT22;56478;50.982;7.032;2023-04-01T13:15:22;12.33;82.22
68177;DHT22;56478;50.982;7.032;2023-04-01T13:18:25;12.39;82.82
68177;DHT22;56478;50.982;7.032;2023-04-01T13:23:55;12.28;82.60
68177;DHT22;56478;50.982;7.032;2023-04-01T13:29:45;12.12;83.34
68177;DHT22;56478;50.982;7.032;2023-04-01T13:43:07;12.23;82.44
68177;DHT22;56478;50.982;7.032;2023-04-01T14:00:11;12.02;84.37
68177;DHT22;56478;50.982;7.032;2023-04-01T14:03:27;12.06;84.39
68177;DHT22;56478;50.982;7.032;2023-04-01T14:12:06;12.01;85.13
68177;DHT22;56478;50.982;7.032;2023-04-01T14:20:18;11.95;85.30
68177;DHT22;56478;50.982;7.032;2023-04-01T14:31:16;11.92;85.64
68177;DHT22;56478;50.982;7.032;2023-04-01T14:34:55;11.89;86.04
68177;DHT22;56478;50.982;7.032;2023-04-01T14:37:19;11.82;86.21
68177;DHT22;56478;50.982;7.032;2023-04-01T14:45:19;11.89;86.05
68177;DHT22;56478;50.982;7.032;2023-04-01T14:47:51;12.02;85.82
68177;DHT22;56478;50.982;7.032;2023-04-01T14:50:23;11.89;85.81
68177;DHT22;56478;50.982;7.032;2023-04-01T14:53:13;11.98;85.88
68177;DHT22;56478;50.982;7.032;2023-04-01T15:03:26;11.82;86.33
68177;DHT22;56478;50.982;7.032;2023-04-01T15:11:59;12.04;85.99
68177;DHT22;56478;50.982;7.032;2023-04-01T15:19:57;12.11;86.04
68177;DHT22;56478;50.982;7.032;2023-04-01T15:23:21;12.01;85.71
68177;DHT22;56478;50.982;7.032;2023-04-01T15:34:52;11.84;86.08
68177;DHT22;56478;50.982;7.032;2023-04-01T15:51:08;11.84;85.99
68177;DHT22;56478;50.982;7.032;2023-04-01T15:54:03;11.73;86.32
68177;DHT22;56478;50.982;7.032;2023-04-01T15:59:20;11.71;86.61
68177;DHT22;56478;50.982;7.032;2023-04-01T16:02:07;11.69;86.18
68177;DHT22;56478;50.982;7.032;2023-04-01T16:10:58;11.78;85.55
68177;DHT22;56478;50.982;7.032;2023-04-01T16:16:31;11.66;85.53
68177;DHT22;56478;50.982;7.032;2023-04-01T16:27:35;11.71;85.69
68177;DHT22;56478;50.982;7.032;2023-04-01T16:30:32;11.67;86.06
68177;DHT22;56478;50.982;7.032;2023-04-01T16:35:55;11.64;86.95
68177;DHT22;56478;50.982;7.032;2023-04-01T16:38:45;11.62;87.03
68177;DHT22;56478;50.982;7.032;2023-04-01T16:41:20;11.56;87.45
68177;DHT22;56478;50.982;7.032;2023-04-01T16:46:39;11.47;87.38
68177;DHT22;56478;50.982;7.032;2023-04-01T16:51:57;11.35;88.07
68177;DHT22;56478;50.982;7.032;2023-04-01T16:56:56;11.16;88.63
68177;DHT22;56478;50.982;7.032;2023-04-01T16:59:36;11.25;88.81
68177;DHT22;56478;50.982;7.032;2023-04-01T17:02:12;11.25;88.20
68177;DHT22;56478;50.982;7.032;2023-04-01T17:10:03;11.23;88.41
68177;DHT22;56478;50.982;7.032;2023-04-01T17:12:47;11.25;88.68
68177;DHT22;56478;50.982;7.032;2023-04-01T17:20:59;11.18;88.69
68177;DHT22;56478;50.982;7.032;2023-04-01T17:23:38;11.16;88.24
68177;DHT22;56478;50.982;7.032;2023-04-01T17:27:02;11.14;88.73
68177;DHT22;56478;50.982;7.032;2023-04-01T17:34:46;11.15;88.54
68177;DHT22;56478;50.982;7.032;2023-04-01T17:37:41;11.08;88.95
68177;DHT22;56478;50.982;7.032;2023-04-01T17:40:25;11.02;89.38
68177;DHT22;56478;50.982;7.032;2023-04-01T17:56:49;10.88;89.94
68177;DHT22;56478;50.982;7.032;2023-04-01T17:59:38;10.91;89.59
68177;DHT22;56478;50.982;7.032;2023-04-01T18:10:31;10.84;89.32
68177;DHT22;56478;50.982;7.032;2023-04-01T18:15:46;10.78;89.13
68177;DHT22;56478;50.982;7.032;2023-04-01T18:24:18;10.77;89.51
68177;DHT22;56478;50.982;7.032;2023-04-01T18:30:01;10.74;89.39
68177;DHT22;56478;50.982;7.032;2023-04-01T18:33:22;10.76;89.32
68177;DHT22;56478;50.982;7.032;2023-04-01T18:35:50;10.74;89.66
68177;DHT22;56478;50.982;7.032;2023-04-01T18:38:33;10.67;89.27
68177;DHT22;56478;50.982;7.032;2023-04-01T18:41:50;10.76;88.99
68177;DHT22;56478;50.982;7.032;2023-04-01T18:43:51;10.73;89.52
68177;DHT22;56478;50.982;7.032;2023-04-01T18:51:53;10.64;89.19
68177;DHT22;56478;50.982;7.032;2023-04-01T18:54:24;10.59;89.50
68177;DHT22;56478;50.982;7.032;2023-04-01T18:57:04;10.59;89.91
68177;DHT22;56478;50.982;7.032;2023-04-01T18:59:53;10.56;89.62
68177;DHT22;56478;50.982;7.032;2023-04-01T19:02:29;10.59;89.79
68177;DHT22;56478;50.982;7.032;2023-04-01T19:07:50;10.57;89.84
68177;DHT22;56478;50.982;7.032;2023-04-01T19:10:23;10.57;89.26
68177;DHT22;56478;50.982;7.032;2023-04-01T19:15:44;10.57;89.72
68177;DHT22;56478;50.982;7.032;2023-04-01T19:20:59;10.60;89.39
68177;DHT22;56478;50.982;7.032;2023-04-01T19:40:31;10.57;90.30
68177;DHT22;56478;50.982;7.032;2023-04-01T19:45:53;10.55;89.91
68177;DHT22;56478;50.982;7.032;2023-04-01T19:51:09;10.55;89.55
68177;DHT22;56478;50.982;7.032;2023-04-01T19:56:40;10.49;89.44
68177;DHT22;56478;50.982;7.032;2023-04-01T19:59:14;10.52;90.30
68177;DHT22;56478;50.982;7.032;2023-04-01T20:07:09;10.53;89.74
68177;DHT22;56478;50.982;7.032;2023-04-01T20:12:55;10.49;90.17
68177;DHT22;56478;50.982;7.032;2023-04-01T20:15:27;10.45;90.03
68177;DHT22;56478;50.982;7.032;2023-04-01T20:17:57;10.52;90.03
68177;DHT22;56478;50.982;7.032;2023-04-01T20:20:26;10.49;90.32
68177;DHT22;56478;50.982;7.032;2023-04-01T20:25:38;10.55;90.32
68177;DHT22;56478;50.982;7.032;2023-04-01T20:31:27;10.45;90.29
68177;DHT22;56478;50.982;7.032;2023-04-01T20:39:10;10.45;90.25
68177;DHT22;56478;50.982;7.032;2023-04-01T20:52:32;10.39;90.17
68177;DHT22;56478;50.982;7.032;2023-04-01T20:57:58;10.33;90.16
68177;DHT22;56478;50.982;7.032;2023-04-01T21:00:36;10.28;90.27
68177;DHT22;56478;50.982;7.032;2023-04-01T21:03:20;10.35;90.67
68177;DHT22;56478;50.982;7.032;2023-04-01T21:08:56;10.35;90.59
68177;DHT22;56478;50.982;7.032;2023-04-01T21:17:10;10.36;90.70
68177;DHT22;56478;50.982;7.032;2023-04-01T21:28:17;10.38;90.02
68177;DHT22;56478;50.982;7.032;2023-04-01T21:31:05;10.35;90.50
68177;DHT22;56478;50.982;7.032;2023-04-01T21:44:36;10.39;90.66
68177;DHT22;56478;50.982;7.032;2023-04-01T22:00:44;10.33;90.55
68177;DHT22;56478;50.982;7.032;2023-04-01T22:14:53;10.32;90.67
68177;DHT22;56478;50.982;7.032;2023-04-01T22:17:45;10.26;90.65
68177;DHT22;56478;50.982;7.032;2023-04-01T22:23:25;10.33;91.02
68177;DHT22;56478;50.982;7.032;2023-04-01T22:26:21;10.32;90.61
68177;DHT22;56478;50.982;7.032;2023-04-01T22:47:22;10.45;90.76
68177;DHT22;56478;50.982;7.032;2023-04-01T22:49:53;10.49;90.57
68177;DHT22;56478;50.982;7.032;2023-04-01T22:54:56;10.53;89.92
68177;DHT22;56478;50.982;7.032;2023-04-01T23:00:07;10.49;90.22
68177;DHT22;56478;50.982;7.032;2023-04-01T23:02:39;10.46;90.88
68177;DHT22;56478;50.982;7.032;2023-04-01T23:05:11;10.39;90.62
68177;DHT22;56478;50.982;7.032;2023-04-01T23:08:03;10.50;90.35
68177;DHT22;56478;50.982;7.032;2023-04-01T23:10:41;10.57;89.88
68177;DHT22;56478;50.982;7.032;2023-04-01T23:13:14;10.52;90.39
68177;DHT22;56478;50.982;7.032;2023-04-01T23:15:41;10.43;90.85
68177;DHT22;56478;50.982;7.032;2023-04-01T23:29:23;10.45;90.35
68177;DHT22;56478;50.982;7.032;2023-04-01T23:31:58;10.42;90.77
68177;DHT22;56478;50.982;7.032;2023-04-01T23:34:35;10.40;91.02
68177;DHT22;56478;50.982;7.032;2023-04-01T23:37:08;10.39;90.96
68177;DHT22;56478;50.982;7.032;2023-04-01T23:39:40;10.43;91.09
68177;DHT22;56478;50.982;7.032;2023-04-01T23:42:28;10.49;91.07
68177;DHT22;56478;50.982;7.032;2023-04-01T23:45:02;10.46;90.99
68177;DHT22;56478;50.982;7.032;2023-04-01T23:47:33;10.49;91.14
68177;DHT22;56478;50.982;7.032;2023-04-01T23:50:06;10.45;91.10
68177;DHT22;56478;50.982;7.032;2023-04-01T23:52:46;10.42;91.02
68177;DHT22;56478;50.982;7.032;2023-04-01T23:55:24;10.43;90.90
